Time;durP1;ratioP1;P1;durP2;ratioP2;P2;SDS_P1;SDS_P2;PMS_P1;PMS_P2;Temp;Humidity;BMP_temperature;BMP_pressure;BME280_temperature;BME280_humidity;BME280_pressure;Samples;Min_cycle;Max_cycle;Signal;HPM_P1;HPM_P2
2021/10/19 00:00:13;;;;;;;32.22;10.40;;;7.70;99.70;;;;;;4929697;29;20035;-68
2021/10/19 00:02:40;;;;;;;18.08;8.63;;;7.70;99.90;;;;;;4930799;28;20048;-67
2021/10/19 00:05:07;;;;;;;27.52;9.30;;;7.70;99.90;;;;;;4928621;29;20488;-67
2021/10/19 00:07:32;;;;;;;19.90;9.63;;;7.70;99.90;;;;;;4932650;29;20431;-67
2021/10/19 00:09:58;;;;;;;21.02;8.65;;;7.70;99.80;;;;;;4927995;29;20031;-67
2021/10/19 00:12:24;;;;;;;24.42;8.90;;;7.70;99.70;;;;;;4924829;29;20036;-66
2021/10/19 00:14:49;;;;;;;41.75;11.70;;;7.70;99.60;;;;;;4928971;29;20114;-67
2021/10/19 00:17:15;;;;;;;20.52;8.55;;;7.60;99.40;;;;;;4933763;29;20028;-67
2021/10/19 00:19:41;;;;;;;13.52;8.73;;;7.60;99.60;;;;;;4930234;29;20035;-66
2021/10/19 00:22:07;;;;;;;34.97;9.27;;;7.60;99.50;;;;;;4928480;29;20719;-67
2021/10/19 00:24:33;;;;;;;26.05;8.77;;;7.60;99.40;;;;;;4932514;29;20036;-67
2021/10/19 00:26:59;;;;;;;49.70;11.55;;;7.50;99.40;;;;;;4928706;29;20027;-67
2021/10/19 00:29:25;;;;;;;21.60;8.10;;;7.50;99.50;;;;;;4930397;29;20433;-67
2021/10/19 00:31:52;;;;;;;66.45;10.40;;;7.40;99.90;;;;;;4934598;28;20039;-67
2021/10/19 00:34:18;;;;;;;56.40;10.68;;;7.40;99.40;;;;;;4929716;28;20027;-67
2021/10/19 00:36:44;;;;;;;13.68;9.32;;;7.40;99.40;;;;;;4933544;29;20675;-67
2021/10/19 00:39:10;;;;;;;30.02;8.60;;;7.40;99.60;;;;;;4937092;29;20031;-67
2021/10/19 00:41:36;;;;;;;11.45;7.40;;;7.30;99.40;;;;;;4935129;29;20103;-67
2021/10/19 00:44:02;;;;;;;16.80;7.55;;;7.30;99.60;;;;;;4942441;29;20440;-67
2021/10/19 00:46:27;;;;;;;9.82;6.38;;;7.30;99.30;;;;;;4936409;29;20035;-67
2021/10/19 00:48:53;;;;;;;25.30;7.97;;;7.30;99.30;;;;;;4933082;29;20035;-67
2021/10/19 00:51:19;;;;;;;62.83;9.07;;;7.30;98.90;;;;;;4932120;29;20110;-67
2021/10/19 00:53:46;;;;;;;11.02;7.65;;;7.30;99.00;;;;;;4936056;29;20040;-67
2021/10/19 00:56:12;;;;;;;26.88;9.00;;;7.20;98.90;;;;;;4930103;29;20031;-67
2021/10/19 00:58:38;;;;;;;11.32;7.70;;;7.20;98.90;;;;;;4935524;29;20019;-67
2021/10/19 01:01:04;;;;;;;44.72;15.30;;;7.30;99.00;;;;;;4929192;28;20248;-67
2021/10/19 01:03:30;;;;;;;44.15;14.73;;;7.20;99.00;;;;;;4929299;29;20019;-68
2021/10/19 01:05:57;;;;;;;17.73;9.57;;;7.30;98.90;;;;;;4933761;29;20105;-68
2021/10/19 01:08:22;;;;;;;41.92;8.45;;;7.20;98.90;;;;;;4932972;29;20043;-67
2021/10/19 01:10:49;;;;;;;30.95;7.95;;;7.20;98.90;;;;;;4933469;29;20032;-67
2021/10/19 01:13:15;;;;;;;15.10;8.23;;;7.10;98.90;;;;;;4930532;28;20047;-67
2021/10/19 01:15:40;;;;;;;36.78;8.00;;;7.10;99.30;;;;;;4932031;29;20038;-67
2021/10/19 01:18:07;;;;;;;10.98;6.95;;;7.10;99.20;;;;;;4935647;29;20039;-67
2021/10/19 01:20:35;;;;;;;12.30;7.00;;;7.10;99.30;;;;;;4930637;29;20032;-67
2021/10/19 01:23:02;;;;;;;48.42;13.82;;;7.20;99.40;;;;;;4934177;29;20068;-67
2021/10/19 01:25:30;;;;;;;25.65;8.77;;;7.10;99.20;;;;;;4927982;29;20500;-67
2021/10/19 01:27:58;;;;;;;35.97;9.87;;;7.10;99.10;;;;;;4936133;29;20038;-67
2021/10/19 01:30:25;;;;;;;83.97;12.68;;;7.00;99.00;;;;;;4932275;28;20428;-67
2021/10/19 01:32:51;;;;;;;12.23;8.40;;;7.00;98.90;;;;;;4933115;29;20032;-67
2021/10/19 01:35:17;;;;;;;51.03;9.93;;;6.90;99.00;;;;;;4929203;29;20385;-67
2021/10/19 01:37:44;;;;;;;20.58;7.65;;;6.90;98.90;;;;;;4949059;29;20146;-67
2021/10/19 01:40:12;;;;;;;24.70;7.80;;;6.90;99.00;;;;;;4927198;29;20103;-66
2021/10/19 01:42:38;;;;;;;15.60;7.43;;;6.80;98.80;;;;;;4939620;29;20038;-67
2021/10/19 01:45:12;;;;;;;39.03;9.57;;;6.80;99.00;;;;;;4938887;28;20098;-67
2021/10/19 01:47:38;;;;;;;40.83;8.40;;;6.70;99.10;;;;;;4931171;29;20046;-67
2021/10/19 01:50:04;;;;;;;27.13;7.72;;;6.70;99.10;;;;;;4930864;29;20031;-67
2021/10/19 01:52:30;;;;;;;30.75;8.07;;;6.70;99.00;;;;;;4941640;28;20310;-67
2021/10/19 01:54:55;;;;;;;15.40;7.35;;;6.70;99.20;;;;;;4928805;29;20476;-67
2021/10/19 01:57:21;;;;;;;24.10;7.00;;;6.70;99.30;;;;;;4947779;28;20399;-67
2021/10/19 01:59:46;;;;;;;26.58;7.35;;;6.60;99.20;;;;;;4940204;29;20019;-67
2021/10/19 02:02:12;;;;;;;11.65;6.55;;;6.60;99.30;;;;;;4946645;28;20052;-67
2021/10/19 02:04:38;;;;;;;12.88;7.82;;;6.60;99.30;;;;;;4933826;29;20084;-67
2021/10/19 02:07:03;;;;;;;33.08;7.32;;;6.60;99.40;;;;;;4934041;29;20032;-67
2021/10/19 02:09:29;;;;;;;18.35;7.00;;;6.60;99.30;;;;;;4933565;29;20027;-67
2021/10/19 02:11:55;;;;;;;18.48;6.82;;;6.60;99.20;;;;;;4929633;29;20115;-66
2021/10/19 02:14:21;;;;;;;31.17;7.10;;;6.60;99.00;;;;;;4932549;29;20489;-67
2021/10/19 02:16:46;;;;;;;32.25;8.88;;;6.60;98.80;;;;;;4935019;29;20055;-67
2021/10/19 02:19:12;;;;;;;36.65;7.75;;;6.50;98.60;;;;;;4934673;29;20027;-67
2021/10/19 02:21:38;;;;;;;35.50;7.35;;;6.50;98.70;;;;;;4941612;28;20039;-67
2021/10/19 02:24:04;;;;;;;21.02;6.72;;;6.40;98.80;;;;;;4948395;28;20046;-67
2021/10/19 02:26:29;;;;;;;19.80;6.57;;;6.40;99.00;;;;;;4944448;29;20035;-66
2021/10/19 02:28:55;;;;;;;19.33;7.32;;;6.30;98.70;;;;;;4934413;29;20027;-66
2021/10/19 02:31:21;;;;;;;45.63;7.97;;;6.30;98.70;;;;;;4932144;28;20040;-66
2021/10/19 02:33:46;;;;;;;40.85;8.95;;;6.30;98.70;;;;;;4937803;29;20023;-67
2021/10/19 02:36:12;;;;;;;13.38;6.05;;;6.30;98.50;;;;;;4932259;29;20398;-67
2021/10/19 02:38:38;;;;;;;35.72;7.30;;;6.30;98.60;;;;;;4934156;29;20036;-67
2021/10/19 02:41:03;;;;;;;64.40;8.50;;;6.20;98.50;;;;;;4933513;29;20035;-67
2021/10/19 02:43:29;;;;;;;53.22;7.78;;;6.20;98.30;;;;;;4931870;29;20083;-67
2021/10/19 02:45:54;;;;;;;34.65;6.53;;;6.10;98.20;;;;;;4930149;29;20075;-67
2021/10/19 02:48:20;;;;;;;37.15;6.95;;;6.10;98.30;;;;;;4929595;29;20035;-67
2021/10/19 02:50:46;;;;;;;49.50;7.63;;;6.00;98.00;;;;;;4933300;29;20031;-67
2021/10/19 02:53:11;;;;;;;17.08;6.00;;;6.00;98.30;;;;;;4930658;29;20066;-67
2021/10/19 02:55:37;;;;;;;94.13;7.85;;;6.00;98.30;;;;;;4933863;29;20031;-67
2021/10/19 02:58:03;;;;;;;24.23;7.88;;;5.90;98.10;;;;;;4930510;29;20374;-67
2021/10/19 03:00:29;;;;;;;39.28;8.48;;;5.80;98.50;;;;;;4930228;28;20146;-67
2021/10/19 03:02:54;;;;;;;52.03;11.73;;;5.80;98.40;;;;;;4931873;29;20027;-67
2021/10/19 03:05:20;;;;;;;9.57;6.07;;;5.80;98.30;;;;;;4931980;29;20115;-67
2021/10/19 03:07:46;;;;;;;19.20;7.38;;;5.70;98.30;;;;;;4939521;29;20075;-67
2021/10/19 03:10:14;;;;;;;9.02;6.45;;;5.80;98.40;;;;;;4929846;29;20032;-67
2021/10/19 03:12:40;;;;;;;8.48;6.30;;;5.70;98.40;;;;;;4925046;29;20496;-67
2021/10/19 03:15:06;;;;;;;20.60;5.97;;;5.70;98.30;;;;;;4925321;29;20087;-67
2021/10/19 03:17:32;;;;;;;37.97;6.93;;;5.60;98.40;;;;;;4927741;29;20032;-67
2021/10/19 03:19:58;;;;;;;18.10;6.35;;;5.60;98.40;;;;;;4931622;29;20047;-67
2021/10/19 03:22:24;;;;;;;12.13;6.10;;;5.60;98.70;;;;;;4929576;29;20035;-67
2021/10/19 03:24:49;;;;;;;20.13;6.53;;;5.60;98.70;;;;;;4933956;29;20536;-67
2021/10/19 03:27:15;;;;;;;17.00;7.10;;;5.60;98.50;;;;;;4929449;29;20072;-67
2021/10/19 03:29:41;;;;;;;18.35;6.10;;;5.60;98.50;;;;;;4934049;29;20028;-68
2021/10/19 03:32:06;;;;;;;6.97;5.43;;;5.60;98.60;;;;;;4931402;28;20535;-67
2021/10/19 03:34:32;;;;;;;10.35;7.03;;;5.70;98.70;;;;;;4932049;29;20056;-68
2021/10/19 03:36:58;;;;;;;5.53;4.80;;;5.70;98.40;;;;;;4931882;29;20421;-67
2021/10/19 03:39:24;;;;;;;6.32;5.10;;;5.60;98.40;;;;;;4930699;29;20028;-67
2021/10/19 03:41:49;;;;;;;6.47;5.47;;;5.70;98.20;;;;;;4930843;28;20409;-67
2021/10/19 03:44:15;;;;;;;7.47;5.30;;;5.70;98.30;;;;;;4931599;29;20064;-67
2021/10/19 03:46:41;;;;;;;5.55;5.00;;;5.70;98.10;;;;;;4929737;29;20211;-67
2021/10/19 03:49:06;;;;;;;7.38;5.35;;;5.70;98.10;;;;;;4931676;29;20179;-67
2021/10/19 03:51:32;;;;;;;12.00;5.45;;;5.70;97.80;;;;;;4929958;29;20532;-67
2021/10/19 03:53:58;;;;;;;7.35;5.70;;;5.60;97.80;;;;;;4928462;29;20230;-67
2021/10/19 03:56:24;;;;;;;9.85;6.28;;;5.60;97.70;;;;;;4931028;29;20032;-67
2021/10/19 03:58:49;;;;;;;6.55;5.50;;;5.60;97.70;;;;;;4946679;28;20126;-67
2021/10/19 04:01:15;;;;;;;7.45;6.45;;;5.50;97.50;;;;;;4926440;28;20452;-67
2021/10/19 04:03:41;;;;;;;6.97;5.57;;;5.50;97.80;;;;;;4932259;28;20031;-67
2021/10/19 04:06:08;;;;;;;8.77;5.82;;;5.50;97.80;;;;;;4934840;28;20111;-67
2021/10/19 04:08:33;;;;;;;8.25;5.72;;;5.40;97.70;;;;;;4930434;29;20468;-67
2021/10/19 04:10:59;;;;;;;8.95;5.32;;;5.40;97.80;;;;;;4932387;29;20053;-67
2021/10/19 04:13:25;;;;;;;6.30;5.45;;;5.40;97.80;;;;;;4929655;29;20621;-67
2021/10/19 04:15:50;;;;;;;7.25;5.63;;;5.50;97.90;;;;;;4931356;29;20060;-67
2021/10/19 04:18:16;;;;;;;6.35;5.18;;;5.50;97.70;;;;;;4930951;29;20481;-67
2021/10/19 04:20:42;;;;;;;5.97;5.38;;;5.40;97.50;;;;;;4930798;29;20038;-67
2021/10/19 04:23:07;;;;;;;7.63;5.68;;;5.40;97.10;;;;;;4928270;29;20715;-67
2021/10/19 04:25:33;;;;;;;7.05;5.97;;;5.40;97.50;;;;;;4939715;29;20032;-67
2021/10/19 04:27:58;;;;;;;8.23;6.53;;;5.40;97.40;;;;;;4930916;29;20031;-67
2021/10/19 04:30:24;;;;;;;8.30;5.47;;;5.40;97.10;;;;;;4931280;28;20544;-67
2021/10/19 04:32:50;;;;;;;8.30;5.95;;;5.40;96.80;;;;;;4929318;29;20043;-68
2021/10/19 04:35:15;;;;;;;6.03;5.22;;;5.30;97.20;;;;;;4929378;29;20060;-67
2021/10/19 04:37:41;;;;;;;6.07;5.47;;;5.30;97.50;;;;;;4944816;28;20480;-67
2021/10/19 04:40:07;;;;;;;7.70;5.55;;;5.30;97.50;;;;;;4929416;29;20028;-67
2021/10/19 04:42:37;;;;;;;5.80;4.53;;;5.30;97.50;;;;;;4930136;29;20051;-67
2021/10/19 04:45:03;;;;;;;5.85;4.72;;;5.30;97.30;;;;;;4930573;29;20111;-67
2021/10/19 04:47:29;;;;;;;7.32;5.40;;;5.20;97.30;;;;;;4930028;29;20492;-67
2021/10/19 04:49:58;;;;;;;7.78;5.40;;;5.20;97.40;;;;;;4928840;29;20047;-67
2021/10/19 04:52:23;;;;;;;6.07;4.95;;;5.20;97.60;;;;;;4931295;29;20024;-67
2021/10/19 04:54:49;;;;;;;7.35;4.95;;;5.20;97.70;;;;;;4931815;29;20473;-67
2021/10/19 04:57:15;;;;;;;6.13;5.07;;;5.20;97.60;;;;;;4927652;29;20055;-67
2021/10/19 04:59:40;;;;;;;5.53;4.30;;;5.20;97.80;;;;;;4926960;29;20059;-66
2021/10/19 05:02:06;;;;;;;6.47;5.03;;;5.20;98.00;;;;;;4919077;28;20040;-67
2021/10/19 05:04:31;;;;;;;6.30;5.22;;;5.20;98.10;;;;;;4929896;29;20028;-68
2021/10/19 05:06:57;;;;;;;6.57;5.22;;;5.20;98.10;;;;;;4931667;29;20512;-67
2021/10/19 05:09:22;;;;;;;6.72;5.22;;;5.20;98.20;;;;;;4931209;29;20103;-68
2021/10/19 05:11:48;;;;;;;6.75;5.00;;;5.30;98.30;;;;;;4929846;29;20082;-67
2021/10/19 05:14:14;;;;;;;7.25;5.50;;;5.30;98.00;;;;;;4929618;29;20051;-66
2021/10/19 05:16:40;;;;;;;5.65;4.75;;;5.30;98.20;;;;;;4933059;29;20028;-66
2021/10/19 05:19:05;;;;;;;5.88;5.13;;;5.40;98.10;;;;;;4933530;29;20032;-67
2021/10/19 05:21:31;;;;;;;5.90;5.03;;;5.40;98.10;;;;;;4929038;29;20035;-66
2021/10/19 05:23:57;;;;;;;6.55;5.07;;;5.40;98.10;;;;;;4935710;29;20108;-67
2021/10/19 05:26:22;;;;;;;5.97;5.38;;;5.40;97.80;;;;;;4931760;29;20036;-67
2021/10/19 05:28:48;;;;;;;8.45;5.47;;;5.40;97.90;;;;;;4931170;29;20070;-67
2021/10/19 05:31:14;;;;;;;7.57;5.28;;;5.30;97.80;;;;;;4927249;28;20069;-67
2021/10/19 05:33:39;;;;;;;9.10;5.78;;;5.30;97.90;;;;;;4935349;29;20086;-67
2021/10/19 05:36:05;;;;;;;6.80;5.35;;;5.30;97.90;;;;;;4933765;29;20543;-68
2021/10/19 05:38:33;;;;;;;8.40;6.35;;;5.30;98.00;;;;;;4929476;29;20034;-67
2021/10/19 05:41:02;;;;;;;8.98;6.45;;;5.30;98.00;;;;;;4940784;28;20031;-67
2021/10/19 05:43:27;;;;;;;;;;;5.30;98.00;;;;;;4934906;29;20535;-67
2021/10/19 05:45:53;;;;;;;6.88;6.15;;;5.30;98.10;;;;;;4929222;29;19919;-67
2021/10/19 05:48:19;;;;;;;9.75;7.28;;;5.30;98.20;;;;;;4933392;29;20035;-67
2021/10/19 05:50:45;;;;;;;8.35;6.63;;;5.40;98.20;;;;;;4931706;29;20059;-67
2021/10/19 05:53:10;;;;;;;9.48;6.20;;;5.40;98.00;;;;;;4926074;29;20046;-67
2021/10/19 05:55:37;;;;;;;6.93;5.15;;;5.40;97.80;;;;;;4925627;29;20031;-67
2021/10/19 05:58:04;;;;;;;6.40;5.70;;;5.40;97.90;;;;;;4940983;28;20560;-67
2021/10/19 06:00:31;;;;;;;7.80;6.20;;;5.40;98.00;;;;;;4925493;28;20500;-67
2021/10/19 06:02:56;;;;;;;12.15;6.22;;;5.50;98.10;;;;;;4925155;29;20027;-67
2021/10/19 06:05:22;;;;;;;8.50;5.95;;;5.50;98.00;;;;;;4923358;29;20038;-67
2021/10/19 06:07:50;;;;;;;10.00;5.90;;;5.50;98.00;;;;;;4926400;29;20028;-66
2021/10/19 06:10:20;;;;;;;9.70;7.00;;;5.50;98.10;;;;;;4924463;29;20036;-67
2021/10/19 06:12:45;;;;;;;11.35;6.85;;;5.50;98.20;;;;;;4925618;29;20056;-67
2021/10/19 06:15:11;;;;;;;7.03;5.40;;;5.60;98.30;;;;;;4919287;29;20039;-67
2021/10/19 06:17:37;;;;;;;9.40;6.03;;;5.60;98.40;;;;;;4927113;29;20032;-68
2021/10/19 06:20:04;;;;;;;13.23;6.85;;;5.60;98.40;;;;;;4932742;29;20023;-68
2021/10/19 06:22:30;;;;;;;9.02;6.30;;;5.70;98.30;;;;;;4933146;29;20048;-67
2021/10/19 06:24:55;;;;;;;9.85;6.32;;;5.70;98.20;;;;;;4934596;29;20456;-68
2021/10/19 06:27:21;;;;;;;10.02;6.40;;;5.70;98.30;;;;;;4930189;29;20179;-66
2021/10/19 06:29:47;;;;;;;10.88;6.68;;;5.70;98.40;;;;;;4933159;29;20106;-67
2021/10/19 06:32:12;;;;;;;10.98;6.70;;;5.70;98.50;;;;;;4933253;28;20122;-67
2021/10/19 06:34:38;;;;;;;7.97;5.78;;;5.70;98.60;;;;;;4932532;29;20083;-67
2021/10/19 06:37:04;;;;;;;9.93;5.95;;;5.70;98.70;;;;;;4934698;29;20032;-67
2021/10/19 06:39:30;;;;;;;9.25;6.65;;;5.80;98.80;;;;;;4927894;29;20118;-67
2021/10/19 06:41:55;;;;;;;9.88;6.13;;;5.80;98.80;;;;;;4931545;29;20028;-67
2021/10/19 06:44:21;;;;;;;7.63;6.03;;;5.80;98.90;;;;;;4930806;28;20742;-67
2021/10/19 06:46:47;;;;;;;10.00;6.88;;;5.90;99.00;;;;;;4933957;29;20485;-68
2021/10/19 06:49:13;;;;;;;14.32;6.88;;;5.80;99.20;;;;;;4932644;29;22182;-67
2021/10/19 06:51:39;;;;;;;9.45;6.13;;;5.90;99.30;;;;;;4940421;29;20110;-67
2021/10/19 06:54:06;;;;;;;8.73;6.15;;;5.90;99.30;;;;;;4932278;29;20031;-67
2021/10/19 06:56:31;;;;;;;11.80;6.68;;;6.00;99.40;;;;;;4932191;29;20393;-67
2021/10/19 06:58:57;;;;;;;8.48;6.03;;;6.00;99.50;;;;;;4933443;29;20036;-67
2021/10/19 07:01:23;;;;;;;11.45;6.00;;;6.00;99.90;;;;;;4944728;28;20098;-67
2021/10/19 07:03:48;;;;;;;9.30;6.25;;;6.10;99.90;;;;;;4943419;28;20036;-68
2021/10/19 07:06:14;;;;;;;8.45;6.72;;;6.10;99.90;;;;;;4940872;29;20019;-67
2021/10/19 07:08:40;;;;;;;9.63;6.03;;;6.10;99.90;;;;;;4930280;29;20504;-67
2021/10/19 07:11:06;;;;;;;7.68;5.72;;;6.20;99.70;;;;;;4928596;29;20043;-68
2021/10/19 07:13:32;;;;;;;10.35;6.75;;;6.20;99.90;;;;;;4929950;29;20043;-67
2021/10/19 07:15:58;;;;;;;10.50;6.53;;;6.30;99.90;;;;;;4933873;29;20470;-67
2021/10/19 07:18:25;;;;;;;10.55;6.43;;;6.30;99.90;;;;;;4930657;29;20497;-67
2021/10/19 07:20:51;;;;;;;10.13;7.03;;;6.30;99.90;;;;;;4930136;29;20432;-67
2021/10/19 07:23:17;;;;;;;9.13;5.97;;;6.40;99.90;;;;;;4932768;29;20520;-68
2021/10/19 07:25:44;;;;;;;11.45;7.10;;;6.40;99.90;;;;;;4947107;28;20471;-67
2021/10/19 07:28:10;;;;;;;12.40;6.82;;;6.40;99.90;;;;;;4948295;29;20133;-68
2021/10/19 07:30:36;;;;;;;10.50;7.00;;;6.50;99.90;;;;;;4931766;28;20036;-67
2021/10/19 07:33:02;;;;;;;10.75;7.22;;;6.50;99.90;;;;;;4947238;29;20122;-68
2021/10/19 07:35:27;;;;;;;8.88;6.43;;;6.60;99.90;;;;;;4931343;29;20050;-68
2021/10/19 07:37:53;;;;;;;12.95;7.13;;;6.60;99.90;;;;;;4945734;28;20027;-68
2021/10/19 07:40:20;;;;;;;10.02;6.93;;;6.60;99.90;;;;;;4928734;29;20031;-66
2021/10/19 07:42:46;;;;;;;12.23;7.38;;;6.70;99.90;;;;;;4930163;29;20028;-67
2021/10/19 07:45:13;;;;;;;16.73;7.20;;;6.80;99.90;;;;;;4932201;29;20091;-67
2021/10/19 07:47:43;;;;;;;9.70;7.35;;;6.90;99.90;;;;;;4931405;29;20043;-67
2021/10/19 07:50:15;;;;;;;10.55;6.80;;;6.90;99.90;;;;;;4932597;29;20034;-67
2021/10/19 07:52:44;;;;;;;9.68;6.68;;;7.00;99.90;;;;;;4932671;29;20472;-67
2021/10/19 07:55:11;;;;;;;12.15;7.47;;;7.00;99.90;;;;;;4931723;29;20035;-67
2021/10/19 07:57:51;;;;;;;8.73;6.13;;;7.10;99.90;;;;;;4933829;29;20020;-67
2021/10/19 08:00:21;;;;;;;10.02;6.45;;;7.10;99.90;;;;;;4932348;29;20111;-68
2021/10/19 08:02:46;;;;;;;10.90;6.82;;;7.20;99.90;;;;;;4930838;29;20541;-67
2021/10/19 08:05:14;;;;;;;11.68;6.90;;;7.30;99.90;;;;;;4927158;29;20107;-68
2021/10/19 08:07:42;;;;;;;9.57;6.15;;;7.30;99.90;;;;;;4913574;29;20035;-67
2021/10/19 08:10:08;;;;;;;8.70;6.10;;;7.40;99.90;;;;;;4922206;29;20031;-68
2021/10/19 08:12:34;;;;;;;9.77;6.15;;;7.40;99.90;;;;;;4919126;29;20039;-67
2021/10/19 08:15:01;;;;;;;8.82;6.35;;;7.40;99.90;;;;;;4933219;28;20043;-67
2021/10/19 08:17:27;;;;;;;9.07;5.60;;;7.50;99.90;;;;;;4930830;29;20036;-68
2021/10/19 08:19:59;;;;;;;8.50;5.85;;;7.50;99.90;;;;;;4932121;29;20064;-67
2021/10/19 08:22:28;;;;;;;7.47;5.85;;;7.60;99.90;;;;;;4933318;29;20115;-67
2021/10/19 08:24:55;;;;;;;9.98;6.47;;;7.70;99.90;;;;;;4931635;29;20063;-67
2021/10/19 08:27:25;;;;;;;11.20;6.20;;;7.70;99.90;;;;;;4931691;29;20556;-67
2021/10/19 08:29:51;;;;;;;10.05;6.05;;;7.80;99.90;;;;;;4930199;29;20040;-68
2021/10/19 08:32:17;;;;;;;10.73;6.07;;;7.90;99.90;;;;;;4923243;28;20154;-67
2021/10/19 08:34:43;;;;;;;8.43;5.90;;;7.90;99.90;;;;;;4931137;29;20120;-68
2021/10/19 08:37:09;;;;;;;10.18;6.07;;;8.00;99.90;;;;;;4931776;29;20426;-68
2021/10/19 08:39:34;;;;;;;7.65;5.88;;;8.00;99.90;;;;;;4929506;29;20036;-67
2021/10/19 08:42:01;;;;;;;8.82;5.80;;;8.10;99.90;;;;;;4928942;29;20032;-68
2021/10/19 08:44:27;;;;;;;8.95;6.72;;;8.10;99.90;;;;;;4932777;29;20038;-67
2021/10/19 08:46:53;;;;;;;12.10;6.25;;;8.30;99.90;;;;;;4924851;29;20036;-67
2021/10/19 08:49:19;;;;;;;8.85;5.75;;;8.30;99.90;;;;;;4938379;28;20502;-67
2021/10/19 08:51:45;;;;;;;11.40;6.22;;;8.40;99.90;;;;;;4927476;29;20477;-67
2021/10/19 08:54:11;;;;;;;7.45;5.93;;;8.50;99.90;;;;;;4928284;29;20040;-67
2021/10/19 08:56:39;;;;;;;8.52;5.65;;;8.50;99.90;;;;;;4935923;29;20358;-67
2021/10/19 08:59:05;;;;;;;10.45;6.75;;;8.60;99.90;;;;;;4934722;29;20090;-67
2021/10/19 09:01:39;;;;;;;7.60;5.65;;;8.60;99.90;;;;;;4934372;28;20130;-67
2021/10/19 09:04:12;;;;;;;9.80;5.97;;;8.70;99.90;;;;;;4936207;29;20055;-67
2021/10/19 09:06:41;;;;;;;8.18;5.50;;;8.70;99.90;;;;;;4934164;29;20035;-67
2021/10/19 09:09:07;;;;;;;;;;;8.80;99.90;;;;;;4934173;29;20074;-67
2021/10/19 09:11:47;;;;;;;7.93;5.35;;;8.80;99.90;;;;;;4931610;29;20045;-67
2021/10/19 09:14:15;;;;;;;7.75;5.53;;;8.90;99.90;;;;;;4932488;29;20428;-67
2021/10/19 09:16:41;;;;;;;7.97;5.20;;;8.90;99.90;;;;;;4935072;29;20028;-67
2021/10/19 09:19:09;;;;;;;9.23;5.60;;;8.90;99.90;;;;;;4936197;29;20031;-67
2021/10/19 09:21:35;;;;;;;7.57;5.65;;;9.00;99.90;;;;;;4932617;29;20438;-67
2021/10/19 09:24:22;;;;;;;7.88;5.85;;;9.00;99.90;;;;;;4951057;28;20039;-68
2021/10/19 09:26:52;;;;;;;6.87;4.87;;;9.10;99.90;;;;;;4932388;29;20033;-67
2021/10/19 09:29:17;;;;;;;8.98;5.90;;;9.10;99.90;;;;;;4935804;29;20511;-67
2021/10/19 09:31:43;;;;;;;8.20;5.85;;;9.10;99.90;;;;;;4933652;28;20036;-67
2021/10/19 09:34:15;;;;;;;8.48;5.78;;;9.20;99.90;;;;;;4932731;29;20071;-67
2021/10/19 09:36:40;;;;;;;10.43;5.85;;;9.30;99.90;;;;;;4935130;29;20046;-67
2021/10/19 09:39:07;;;;;;;8.52;5.43;;;9.30;99.90;;;;;;4934991;29;20429;-67
2021/10/19 09:41:44;;;;;;;12.18;6.38;;;9.40;99.90;;;;;;4931914;29;20118;-67
2021/10/19 09:44:11;;;;;;;7.80;5.40;;;9.50;99.90;;;;;;4925335;29;20548;-67
2021/10/19 09:46:38;;;;;;;9.48;5.68;;;9.50;99.90;;;;;;4934661;29;20030;-67
2021/10/19 09:49:04;;;;;;;7.25;5.55;;;9.60;99.90;;;;;;4934103;29;20100;-67
2021/10/19 09:51:37;;;;;;;7.68;5.68;;;9.60;99.90;;;;;;4934954;29;20669;-67
2021/10/19 09:54:09;;;;;;;10.70;7.68;;;9.60;99.90;;;;;;4921063;29;20697;-66
2021/10/19 09:56:37;;;;;;;8.07;6.15;;;9.70;99.90;;;;;;4945652;29;20028;-67
2021/10/19 09:59:03;;;;;;;8.73;5.95;;;9.70;99.90;;;;;;4921269;29;20035;-67
2021/10/19 10:01:29;;;;;;;7.05;5.20;;;9.70;99.90;;;;;;4931739;28;20075;-67
2021/10/19 10:03:56;;;;;;;7.55;5.32;;;9.80;99.90;;;;;;4932703;29;20473;-67
2021/10/19 10:06:22;;;;;;;12.70;6.80;;;9.80;99.90;;;;;;4934963;29;20039;-67
2021/10/19 10:08:49;;;;;;;14.57;8.55;;;9.90;99.90;;;;;;4931376;28;20032;-67
2021/10/19 10:11:16;;;;;;;11.35;6.40;;;10.00;99.90;;;;;;4932878;29;20036;-67
2021/10/19 10:13:53;;;;;;;8.40;5.53;;;10.00;99.90;;;;;;4933397;29;20051;-67
2021/10/19 10:16:19;;;;;;;7.50;5.50;;;10.10;99.90;;;;;;4930135;29;20028;-67
2021/10/19 10:18:45;;;;;;;10.07;6.95;;;10.20;99.90;;;;;;4932478;29;20118;-67
2021/10/19 10:21:16;;;;;;;8.30;5.72;;;10.20;99.90;;;;;;4932095;29;20051;-67
2021/10/19 10:23:43;;;;;;;12.00;5.97;;;10.30;99.90;;;;;;4935252;29;20091;-68
2021/10/19 10:26:21;;;;;;;7.95;5.38;;;10.40;99.90;;;;;;4928390;29;20036;-68
2021/10/19 10:28:47;;;;;;;9.20;5.70;;;10.40;99.90;;;;;;4931649;29;20039;-68
2021/10/19 10:31:21;;;;;;;9.00;5.72;;;10.50;99.90;;;;;;4931780;28;20075;-67
2021/10/19 10:34:00;;;;;;;6.80;5.38;;;10.60;99.90;;;;;;4934235;29;20069;-67
2021/10/19 10:36:39;;;;;;;8.73;6.55;;;10.70;99.90;;;;;;4931465;29;20032;-67
2021/10/19 10:39:07;;;;;;;7.88;5.43;;;10.70;99.90;;;;;;4946059;28;20694;-67
2021/10/19 10:42:06;;;;;;;6.88;5.40;;;10.80;99.90;;;;;;4930954;29;20031;-67
2021/10/19 10:44:36;;;;;;;7.25;6.10;;;10.90;99.90;;;;;;4925764;29;20086;-67
2021/10/19 10:47:05;;;;;;;9.15;5.75;;;11.00;99.90;;;;;;4935118;29;20107;-67
2021/10/19 10:49:34;;;;;;;7.80;5.10;;;11.10;99.90;;;;;;4930129;29;20523;-68
2021/10/19 10:52:02;;;;;;;8.20;5.68;;;11.10;99.90;;;;;;4930296;29;20123;-67
2021/10/19 10:54:28;;;;;;;7.43;5.35;;;11.20;99.80;;;;;;4932669;29;20024;-67
2021/10/19 10:56:55;;;;;;;11.75;5.22;;;11.30;99.10;;;;;;4934233;29;20138;-68
2021/10/19 10:59:28;;;;;;;6.72;4.47;;;11.30;98.30;;;;;;4930629;29;20032;-68
2021/10/19 11:02:10;;;;;;;8.57;4.53;;;11.40;97.30;;;;;;4930606;28;20094;-69
2021/10/19 11:04:50;;;;;;;5.78;4.20;;;11.40;97.10;;;;;;4937104;29;20034;-68
2021/10/19 11:07:31;;;;;;;6.45;4.60;;;11.50;96.80;;;;;;4936691;29;20027;-68
2021/10/19 11:09:57;;;;;;;8.00;4.78;;;11.50;97.10;;;;;;4930001;29;20123;-69
2021/10/19 11:12:23;;;;;;;7.32;4.53;;;11.60;97.40;;;;;;4928704;29;20036;-68
2021/10/19 11:14:49;;;;;;;7.40;4.03;;;11.70;96.70;;;;;;4933498;29;20031;-68
2021/10/19 11:17:18;;;;;;;7.25;4.22;;;11.70;96.50;;;;;;4932871;29;20500;-67
2021/10/19 11:19:45;;;;;;;5.72;3.75;;;11.70;96.50;;;;;;4932229;29;20038;-67
2021/10/19 11:22:12;;;;;;;8.60;4.70;;;11.70;96.70;;;;;;4931433;28;20039;-67
2021/10/19 11:24:38;;;;;;;5.90;4.60;;;11.80;96.70;;;;;;4931682;29;20059;-67
2021/10/19 11:27:05;;;;;;;7.95;4.95;;;11.80;96.40;;;;;;4932287;29;20031;-67
2021/10/19 11:29:34;;;;;;;8.20;5.03;;;11.90;96.30;;;;;;4932592;29;20031;-69
2021/10/19 11:32:01;;;;;;;10.00;5.07;;;11.90;96.30;;;;;;4932193;28;20131;-68
2021/10/19 11:34:27;;;;;;;6.22;4.63;;;12.00;96.50;;;;;;4933103;29;20118;-68
2021/10/19 11:36:53;;;;;;;7.45;4.47;;;12.00;96.60;;;;;;4932192;29;20521;-68
2021/10/19 11:39:19;;;;;;;7.47;4.63;;;12.10;97.10;;;;;;4931694;29;20035;-67
2021/10/19 11:41:48;;;;;;;21.45;18.85;;;12.20;97.00;;;;;;4935783;29;20040;-67
2021/10/19 11:44:14;;;;;;;;;;;12.10;96.00;;;;;;4930107;29;20587;-67
2021/10/19 11:46:41;;;;;;;7.43;4.68;;;12.10;95.50;;;;;;4932621;29;19958;-68
2021/10/19 11:49:18;;;;;;;7.85;4.70;;;12.20;96.00;;;;;;4929548;29;20036;-67
2021/10/19 11:51:48;;;;;;;9.25;5.07;;;12.30;96.10;;;;;;4936062;29;20039;-67
2021/10/19 11:54:14;;;;;;;9.18;5.05;;;12.30;95.60;;;;;;4933779;29;20023;-67
2021/10/19 11:56:41;;;;;;;8.90;4.47;;;12.40;95.10;;;;;;4947919;28;20059;-67
2021/10/19 11:59:08;;;;;;;8.07;4.72;;;12.40;95.00;;;;;;4929622;29;20393;-67
2021/10/19 12:01:42;;;;;;;7.15;4.57;;;12.40;94.20;;;;;;4945792;28;20400;-67
2021/10/19 12:04:12;;;;;;;6.97;4.55;;;12.50;94.00;;;;;;4927801;29;20032;-68
2021/10/19 12:06:45;;;;;;;7.28;4.60;;;12.50;94.30;;;;;;4945730;28;20051;-67
2021/10/19 12:09:12;;;;;;;6.60;4.63;;;12.50;94.20;;;;;;4931350;29;20035;-67
2021/10/19 12:11:38;;;;;;;6.53;4.97;;;12.50;94.10;;;;;;4926387;29;20072;-67
2021/10/19 12:14:05;;;;;;;6.55;4.20;;;12.50;93.80;;;;;;4933327;29;20044;-67
2021/10/19 12:16:32;;;;;;;6.13;4.43;;;12.50;94.20;;;;;;4931647;29;20038;-67
2021/10/19 12:19:00;;;;;;;5.10;4.13;;;12.50;94.20;;;;;;4928734;29;20075;-67
2021/10/19 12:21:27;;;;;;;5.37;4.30;;;12.60;94.20;;;;;;4934583;29;20024;-68
2021/10/19 12:23:58;;;;;;;6.32;4.40;;;12.60;93.60;;;;;;4932485;29;20408;-68
2021/10/19 12:26:26;;;;;;;6.18;4.47;;;12.60;94.70;;;;;;4931463;29;20392;-68
2021/10/19 12:28:55;;;;;;;6.50;4.85;;;12.70;93.40;;;;;;4929931;29;20030;-68
2021/10/19 12:31:22;;;;;;;5.88;4.18;;;12.70;93.60;;;;;;4929657;28;20461;-67
2021/10/19 12:34:00;;;;;;;6.57;4.25;;;12.80;92.80;;;;;;4928054;29;20031;-68
2021/10/19 12:36:29;;;;;;;5.68;3.90;;;12.90;92.40;;;;;;4932262;29;20516;-67
2021/10/19 12:38:59;;;;;;;6.13;4.22;;;12.90;92.80;;;;;;4926225;29;20032;-67
2021/10/19 12:41:27;;;;;;;5.28;4.13;;;13.00;92.20;;;;;;4932436;29;20538;-68
2021/10/19 12:43:54;;;;;;;6.25;3.38;;;13.10;92.10;;;;;;4930140;29;20027;-67
2021/10/19 12:46:25;;;;;;;4.97;3.10;;;13.20;91.20;;;;;;4932966;29;20024;-68
2021/10/19 12:48:54;;;;;;;4.10;2.90;;;13.20;91.20;;;;;;4929682;29;20031;-67